createdAt,value
2019-04-29T00:00:42.055Z,11.80
2019-04-29T00:03:14.020Z,11.80
2019-04-29T00:05:44.429Z,11.80
2019-04-29T00:08:14.754Z,11.80
2019-04-29T00:10:46.111Z,11.80
2019-04-29T00:13:16.581Z,11.90
2019-04-29T00:16:11.917Z,11.80
2019-04-29T00:19:07.046Z,11.80
2019-04-29T00:21:37.912Z,11.80
2019-04-29T00:24:08.790Z,11.80
2019-04-29T00:26:39.086Z,11.90
2019-04-29T00:29:09.751Z,11.80
2019-04-29T00:31:40.121Z,11.90
2019-04-29T00:34:11.179Z,11.80
2019-04-29T00:36:49.108Z,11.80
2019-04-29T00:39:51.282Z,11.80
2019-04-29T00:42:34.526Z,11.80
2019-04-29T00:45:05.145Z,11.80
2019-04-29T00:47:35.752Z,11.90
2019-04-29T00:50:08.222Z,11.90
2019-04-29T00:52:38.583Z,11.90
2019-04-29T00:55:12.585Z,11.90
2019-04-29T00:57:42.820Z,11.80
2019-04-29T01:00:21.583Z,11.90
2019-04-29T01:02:51.951Z,11.90
2019-04-29T01:05:22.420Z,11.90
2019-04-29T01:07:53.216Z,12.00
2019-04-29T01:10:23.778Z,11.90
2019-04-29T01:12:54.141Z,11.90
2019-04-29T01:15:24.496Z,11.90
2019-04-29T01:17:54.797Z,11.80
2019-04-29T01:20:25.099Z,12.00
2019-04-29T01:22:55.511Z,11.90
2019-04-29T01:25:26.007Z,11.80
2019-04-29T01:28:02.052Z,11.90
2019-04-29T01:31:04.677Z,11.90
2019-04-29T01:33:35.073Z,11.90
2019-04-29T01:36:28.035Z,11.90
2019-04-29T01:39:01.042Z,11.90
2019-04-29T01:41:38.623Z,11.90
2019-04-29T01:44:09.371Z,11.90
2019-04-29T01:46:40.055Z,11.90
2019-04-29T01:49:10.328Z,11.90
2019-04-29T01:51:40.715Z,11.90
2019-04-29T01:54:11.141Z,12.00
2019-04-29T01:56:41.433Z,12.00
2019-04-29T01:59:11.718Z,12.00
2019-04-29T02:01:42.048Z,12.10
2019-04-29T02:04:12.376Z,12.10
2019-04-29T02:06:43.176Z,12.00
2019-04-29T02:09:20.199Z,12.00
2019-04-29T02:11:50.441Z,12.00
2019-04-29T02:14:21.144Z,11.90
2019-04-29T02:16:51.517Z,11.90
2019-04-29T02:19:21.803Z,11.90
2019-04-29T02:22:29.206Z,12.00
2019-04-29T02:25:06.567Z,11.90
2019-04-29T02:27:36.923Z,11.90
2019-04-29T02:30:07.816Z,11.90
2019-04-29T02:32:38.139Z,11.90
2019-04-29T02:35:09.178Z,11.80
2019-04-29T02:37:41.427Z,11.80
2019-04-29T02:40:22.380Z,11.80
2019-04-29T02:42:59.106Z,11.80
2019-04-29T02:45:32.455Z,11.80
2019-04-29T02:48:02.730Z,11.80
2019-04-29T02:50:33.004Z,11.80
2019-04-29T02:53:03.281Z,11.80
2019-04-29T02:55:38.085Z,11.80
2019-04-29T02:58:17.445Z,11.80
2019-04-29T03:01:07.011Z,11.80
2019-04-29T03:03:54.708Z,11.80
2019-04-29T03:06:25.005Z,11.80
2019-04-29T03:08:55.316Z,11.90
2019-04-29T03:11:25.979Z,11.90
2019-04-29T03:13:56.266Z,12.00
2019-04-29T03:16:27.408Z,11.90
2019-04-29T03:19:02.318Z,11.90
2019-04-29T03:21:41.377Z,11.90
2019-04-29T03:24:11.871Z,11.90
2019-04-29T03:26:42.130Z,11.80
2019-04-29T03:29:24.626Z,11.90
2019-04-29T03:31:56.435Z,11.90
2019-04-29T03:34:27.694Z,11.80
2019-04-29T03:36:57.964Z,11.90
2019-04-29T03:39:28.361Z,11.90
2019-04-29T03:41:58.659Z,11.90
2019-04-29T03:44:28.953Z,11.90
2019-04-29T03:46:59.287Z,11.90
2019-04-29T03:49:29.537Z,12.00
2019-04-29T03:51:59.772Z,12.00
2019-04-29T03:54:30.039Z,12.00
2019-04-29T03:57:01.487Z,12.10
2019-04-29T03:59:31.724Z,12.10
2019-04-29T04:02:12.543Z,12.00
2019-04-29T04:05:12.370Z,12.00
2019-04-29T04:07:50.255Z,12.10
2019-04-29T04:10:20.567Z,12.10
2019-04-29T04:12:50.875Z,12.10
2019-04-29T04:15:21.242Z,12.10
2019-04-29T04:18:00.392Z,12.10
2019-04-29T04:20:30.974Z,12.20
2019-04-29T04:23:02.308Z,12.20
2019-04-29T04:25:32.685Z,12.30
2019-04-29T04:28:03.105Z,12.40
2019-04-29T04:30:33.540Z,12.40
2019-04-29T04:33:03.946Z,12.50
2019-04-29T04:35:34.271Z,12.60
2019-04-29T04:38:04.483Z,12.60
2019-04-29T04:40:42.338Z,12.60
2019-04-29T04:43:12.607Z,12.80
2019-04-29T04:45:42.900Z,12.80
2019-04-29T04:48:13.205Z,12.80
2019-04-29T04:50:43.903Z,12.70
2019-04-29T04:53:14.075Z,12.80
2019-04-29T04:55:46.027Z,12.80
2019-04-29T04:58:16.279Z,12.80
2019-04-29T05:00:46.834Z,12.90
2019-04-29T05:03:17.113Z,13.00
2019-04-29T05:05:47.431Z,13.30
2019-04-29T05:08:18.191Z,13.20
2019-04-29T05:10:48.484Z,13.30
2019-04-29T05:13:27.939Z,13.50
2019-04-29T05:15:50.854Z,13.50
2019-04-29T05:18:21.161Z,13.50
2019-04-29T05:20:51.452Z,13.50
2019-04-29T05:23:22.629Z,13.10
2019-04-29T05:25:53.035Z,13.30
2019-04-29T05:28:23.289Z,13.50
2019-04-29T05:30:53.907Z,13.60
2019-04-29T05:33:24.458Z,13.40
2019-04-29T05:36:01.931Z,13.50
2019-04-29T05:38:57.268Z,13.60
2019-04-29T05:41:30.032Z,13.60
2019-04-29T05:44:14.449Z,13.60
2019-04-29T05:47:01.065Z,13.50
2019-04-29T05:49:41.714Z,13.60
2019-04-29T05:52:22.828Z,13.80
2019-04-29T05:54:53.092Z,13.70
2019-04-29T05:57:25.323Z,13.50
2019-04-29T05:59:55.415Z,13.60
2019-04-29T06:02:33.541Z,13.70
2019-04-29T06:04:58.045Z,13.70
2019-04-29T06:07:28.341Z,13.90
2019-04-29T06:09:58.638Z,13.60
2019-04-29T06:12:28.995Z,13.60
2019-04-29T06:14:59.319Z,13.70
2019-04-29T06:17:29.999Z,14.20
2019-04-29T06:20:00.334Z,14.40
2019-04-29T06:22:30.661Z,14.20
2019-04-29T06:25:01.149Z,14.50
2019-04-29T06:27:33.344Z,14.40
2019-04-29T06:30:04.948Z,14.50
2019-04-29T06:32:35.638Z,14.20
2019-04-29T06:35:10.542Z,14.40
2019-04-29T06:37:38.695Z,14.00
2019-04-29T06:40:09.170Z,14.10
2019-04-29T06:42:39.482Z,14.70
2019-04-29T06:45:09.788Z,14.50
2019-04-29T06:47:40.094Z,14.50
2019-04-29T06:50:10.477Z,14.60
2019-04-29T06:52:40.820Z,14.90
2019-04-29T06:55:11.657Z,15.20
2019-04-29T06:57:42.206Z,14.90
2019-04-29T07:00:17.545Z,15.20
2019-04-29T07:02:49.858Z,14.80
2019-04-29T07:05:18.671Z,14.90
2019-04-29T07:07:48.892Z,14.80
2019-04-29T07:10:21.281Z,15.20
2019-04-29T07:12:51.313Z,15.70
2019-04-29T07:15:22.728Z,16.10
2019-04-29T07:17:53.264Z,16.20
2019-04-29T07:20:23.530Z,16.50
2019-04-29T07:22:56.499Z,16.00
2019-04-29T07:25:28.720Z,15.80
2019-04-29T07:27:57.678Z,16.20
2019-04-29T07:30:29.509Z,15.90
2019-04-29T07:32:59.918Z,15.60
2019-04-29T07:35:30.186Z,15.50
2019-04-29T07:38:04.411Z,15.80
2019-04-29T07:40:32.727Z,16.00
2019-04-29T07:43:07.769Z,16.30
2019-04-29T07:46:03.608Z,16.40
2019-04-29T07:48:32.513Z,16.60
2019-04-29T07:51:04.187Z,16.80
2019-04-29T07:53:44.510Z,16.80
2019-04-29T07:56:08.081Z,16.60
2019-04-29T07:58:38.658Z,16.30
2019-04-29T08:01:09.212Z,16.00
2019-04-29T08:03:39.491Z,16.10
2019-04-29T08:06:10.149Z,16.00
2019-04-29T08:08:53.847Z,15.80
2019-04-29T08:11:13.675Z,15.90
2019-04-29T08:13:45.771Z,15.70
2019-04-29T08:16:17.234Z,15.90
2019-04-29T08:18:49.450Z,15.90
2019-04-29T08:21:19.866Z,15.80
2019-04-29T08:23:50.254Z,15.90
2019-04-29T08:26:20.548Z,16.10
2019-04-29T08:28:52.920Z,16.40
2019-04-29T08:31:22.724Z,16.60
2019-04-29T08:33:52.979Z,16.60
2019-04-29T08:36:23.484Z,16.60
2019-04-29T08:38:53.828Z,16.60
2019-04-29T08:41:28.491Z,16.60
2019-04-29T08:44:16.202Z,16.90
2019-04-29T08:46:53.091Z,16.90
2019-04-29T08:49:23.531Z,16.80
2019-04-29T08:51:53.791Z,17.00
2019-04-29T08:54:24.283Z,17.30
2019-04-29T08:57:03.157Z,17.60
2019-04-29T08:59:26.548Z,17.40
2019-04-29T09:01:56.813Z,17.50
2019-04-29T09:04:28.499Z,17.50
2019-04-29T09:07:12.064Z,17.40
2019-04-29T09:09:31.376Z,17.60
2019-04-29T09:12:01.629Z,17.40
2019-04-29T09:14:32.158Z,17.50
2019-04-29T09:17:06.103Z,17.70
2019-04-29T09:19:34.768Z,17.80
2019-04-29T09:22:07.065Z,17.80
2019-04-29T09:24:39.132Z,17.90
2019-04-29T09:27:14.091Z,18.10
2019-04-29T09:29:46.393Z,18.50
2019-04-29T09:32:19.662Z,18.80
2019-04-29T09:34:50.566Z,18.70
2019-04-29T09:37:22.909Z,18.90
2019-04-29T09:39:52.873Z,19.10
2019-04-29T09:42:51.889Z,19.40
2019-04-29T09:45:49.246Z,19.80
2019-04-29T09:48:19.734Z,19.70
2019-04-29T09:50:50.001Z,19.50
2019-04-29T09:53:20.627Z,19.70
2019-04-29T09:55:51.088Z,19.70
2019-04-29T09:58:22.837Z,19.90
2019-04-29T10:01:13.792Z,20.60
2019-04-29T10:04:02.048Z,20.80
2019-04-29T10:06:34.540Z,21.10
2019-04-29T10:09:08.544Z,20.80
2019-04-29T10:11:39.957Z,21.10
2019-04-29T10:14:11.144Z,20.80
2019-04-29T10:17:03.464Z,20.80
2019-04-29T10:19:47.195Z,20.90
2019-04-29T10:22:17.462Z,21.40
2019-04-29T10:24:47.977Z,21.50
2019-04-29T10:27:18.223Z,21.40
2019-04-29T10:29:55.184Z,21.50
2019-04-29T10:32:23.514Z,21.40
2019-04-29T10:34:54.349Z,21.10
2019-04-29T10:37:31.429Z,20.90
2019-04-29T10:40:20.914Z,21.20
2019-04-29T10:43:11.432Z,21.60
2019-04-29T10:46:07.951Z,21.60
2019-04-29T10:48:44.431Z,21.30
2019-04-29T10:51:16.488Z,21.00
2019-04-29T10:53:50.808Z,21.00
2019-04-29T10:56:19.829Z,21.10
2019-04-29T10:58:50.032Z,21.30
2019-04-29T11:02:01.694Z,21.40
2019-04-29T11:04:36.260Z,21.50
2019-04-29T11:07:19.130Z,21.30
2019-04-29T11:09:56.230Z,21.20
2019-04-29T11:12:26.670Z,21.50
2019-04-29T11:14:57.324Z,21.60
2019-04-29T11:17:28.382Z,21.90
2019-04-29T11:19:58.543Z,22.00
2019-04-29T11:22:34.071Z,22.20
2019-04-29T11:25:23.890Z,22.30
2019-04-29T11:27:56.241Z,22.10
2019-04-29T11:30:28.032Z,21.80
2019-04-29T11:33:08.639Z,21.80
2019-04-29T11:35:55.159Z,22.00
2019-04-29T11:38:28.557Z,22.50
2019-04-29T11:40:58.892Z,22.80
2019-04-29T11:43:29.406Z,22.90
2019-04-29T11:45:59.786Z,22.90
2019-04-29T11:48:30.247Z,22.30
2019-04-29T11:51:48.618Z,21.80
2019-04-29T11:54:12.390Z,22.00
2019-04-29T11:56:41.924Z,22.80
2019-04-29T11:59:34.510Z,23.10
2019-04-29T12:02:33.416Z,22.90
2019-04-29T12:05:04.221Z,23.00
2019-04-29T12:07:34.408Z,22.30
2019-04-29T12:10:06.449Z,21.80
2019-04-29T12:12:39.438Z,21.80
2019-04-29T12:15:34.929Z,22.10
2019-04-29T12:18:28.880Z,21.80
2019-04-29T12:21:14.560Z,22.00
2019-04-29T12:23:47.681Z,22.60
2019-04-29T12:26:18.502Z,23.00
2019-04-29T12:28:48.999Z,23.40
2019-04-29T12:31:49.448Z,23.30
2019-04-29T12:34:44.749Z,23.50
2019-04-29T12:37:34.391Z,23.00
2019-04-29T12:40:24.204Z,22.30
2019-04-29T12:43:16.244Z,22.20
2019-04-29T12:45:53.804Z,22.20
2019-04-29T12:48:25.298Z,22.30
2019-04-29T12:50:57.512Z,22.50
2019-04-29T12:53:28.635Z,22.70
2019-04-29T12:56:00.165Z,22.50
2019-04-29T12:58:30.448Z,22.30
2019-04-29T13:01:09.958Z,22.30
2019-04-29T13:03:48.011Z,22.40
2019-04-29T13:06:39.748Z,22.80
2019-04-29T13:09:17.917Z,23.10
2019-04-29T13:11:52.142Z,23.00
2019-04-29T13:14:21.903Z,22.70
2019-04-29T13:17:14.069Z,22.70
2019-04-29T13:19:40.439Z,22.70
2019-04-29T13:22:15.445Z,23.00
2019-04-29T13:24:44.278Z,23.10
2019-04-29T13:27:16.221Z,23.00
2019-04-29T13:29:46.651Z,23.20
2019-04-29T13:32:17.389Z,23.50
2019-04-29T13:34:50.105Z,23.80
2019-04-29T13:37:20.638Z,23.90
2019-04-29T13:39:55.287Z,23.80
2019-04-29T13:42:22.885Z,23.30
2019-04-29T13:45:06.248Z,22.60
2019-04-29T13:47:38.399Z,22.10
2019-04-29T13:50:33.967Z,22.20
2019-04-29T13:52:50.865Z,22.10
2019-04-29T13:55:46.670Z,22.30
2019-04-29T13:57:54.868Z,22.70
2019-04-29T14:00:38.183Z,22.90
2019-04-29T14:03:12.764Z,22.80
2019-04-29T14:05:43.612Z,22.80
2019-04-29T14:08:14.262Z,22.50
2019-04-29T14:10:46.890Z,22.30
2019-04-29T14:13:20.821Z,21.90
2019-04-29T14:15:49.467Z,21.60
2019-04-29T14:18:19.709Z,21.60
2019-04-29T14:20:51.864Z,21.70
2019-04-29T14:23:23.422Z,21.50
2019-04-29T14:25:53.934Z,20.80
2019-04-29T14:28:25.278Z,20.40
2019-04-29T14:30:56.703Z,19.80
2019-04-29T14:33:31.841Z,19.50
2019-04-29T14:36:08.657Z,19.20
2019-04-29T14:38:40.857Z,18.70
2019-04-29T14:41:14.229Z,18.60
2019-04-29T14:43:56.809Z,18.40
2019-04-29T14:46:46.649Z,18.30
2019-04-29T14:49:20.550Z,18.20
2019-04-29T14:51:50.867Z,18.20
2019-04-29T14:54:21.310Z,18.00
2019-04-29T14:56:51.605Z,18.10
2019-04-29T14:59:22.052Z,18.10
2019-04-29T15:01:57.936Z,18.10
2019-04-29T15:04:32.167Z,18.10
2019-04-29T15:07:02.985Z,18.10
2019-04-29T15:09:46.002Z,18.20
2019-04-29T15:12:12.843Z,18.50
2019-04-29T15:14:54.627Z,18.60
2019-04-29T15:17:34.717Z,18.70
2019-04-29T15:20:30.342Z,18.90
2019-04-29T15:22:59.710Z,18.90
2019-04-29T15:25:30.055Z,19.10
2019-04-29T15:28:00.349Z,19.40
2019-04-29T15:30:31.670Z,19.60
2019-04-29T15:33:02.616Z,20.00
2019-04-29T15:35:32.967Z,20.10
2019-04-29T15:38:03.356Z,20.30
2019-04-29T15:40:42.707Z,20.30
2019-04-29T15:43:09.154Z,20.10
2019-04-29T15:45:40.627Z,19.80
2019-04-29T15:48:11.274Z,19.50
2019-04-29T15:50:41.606Z,19.50
2019-04-29T15:53:12.214Z,19.50
2019-04-29T15:55:42.521Z,19.30
2019-04-29T15:58:14.646Z,19.50
2019-04-29T16:00:45.224Z,19.50
2019-04-29T16:03:17.714Z,19.50
2019-04-29T16:06:19.935Z,19.30
2019-04-29T16:08:58.956Z,19.30
2019-04-29T16:11:45.444Z,19.30
2019-04-29T16:14:22.504Z,19.40
2019-04-29T16:16:52.846Z,19.00
2019-04-29T16:19:23.176Z,19.00
2019-04-29T16:21:53.801Z,18.80
2019-04-29T16:24:27.100Z,18.90
2019-04-29T16:27:01.271Z,18.60
2019-04-29T16:29:28.010Z,18.60
2019-04-29T16:32:02.357Z,18.50
2019-04-29T16:34:30.168Z,18.50
2019-04-29T16:37:00.761Z,18.50
2019-04-29T16:39:31.770Z,18.70
2019-04-29T16:42:17.215Z,18.60
2019-04-29T16:44:47.675Z,18.80
2019-04-29T16:47:17.960Z,18.80
2019-04-29T16:49:48.368Z,18.70
2019-04-29T16:52:18.846Z,18.50
2019-04-29T16:54:49.632Z,18.50
2019-04-29T16:57:20.026Z,18.50
2019-04-29T16:59:50.810Z,18.40
2019-04-29T17:02:21.102Z,18.40
2019-04-29T17:04:51.635Z,18.50
2019-04-29T17:07:21.994Z,18.40
2019-04-29T17:10:14.276Z,18.50
2019-04-29T17:12:49.471Z,18.50
2019-04-29T17:15:25.145Z,18.40
2019-04-29T17:17:51.759Z,18.20
2019-04-29T17:20:22.669Z,18.20
2019-04-29T17:22:53.848Z,18.10
2019-04-29T17:25:24.601Z,17.90
2019-04-29T17:28:29.387Z,17.80
2019-04-29T17:31:14.338Z,17.70
2019-04-29T17:33:54.872Z,17.60
2019-04-29T17:36:27.203Z,17.50
2019-04-29T17:38:57.819Z,17.40
2019-04-29T17:41:28.130Z,17.30
2019-04-29T17:44:14.444Z,17.20
2019-04-29T17:47:01.681Z,17.10
2019-04-29T17:50:02.128Z,17.10
2019-04-29T17:52:31.731Z,17.00
2019-04-29T17:55:15.201Z,16.90
2019-04-29T17:57:57.321Z,16.80
2019-04-29T18:00:57.897Z,16.70
2019-04-29T18:03:41.423Z,16.60
2019-04-29T18:06:17.284Z,16.60
2019-04-29T18:09:13.514Z,16.50
2019-04-29T18:11:51.613Z,16.50
2019-04-29T18:14:16.376Z,16.50
2019-04-29T18:16:47.927Z,16.50
2019-04-29T18:19:47.166Z,16.50
2019-04-29T18:22:35.503Z,16.60
2019-04-29T18:25:13.416Z,16.50
2019-04-29T18:27:45.077Z,16.60
2019-04-29T18:30:19.477Z,16.60
2019-04-29T18:32:47.879Z,16.60
2019-04-29T18:35:18.583Z,16.60
2019-04-29T18:37:48.898Z,16.60
2019-04-29T18:40:19.628Z,16.60
2019-04-29T18:42:50.575Z,16.50
2019-04-29T18:45:21.551Z,16.50
2019-04-29T18:47:51.975Z,16.50
2019-04-29T18:50:22.329Z,16.50
2019-04-29T18:52:52.613Z,16.40
2019-04-29T18:55:22.930Z,16.50
2019-04-29T18:57:58.047Z,16.40
2019-04-29T19:00:26.902Z,16.40
2019-04-29T19:02:59.809Z,16.40
2019-04-29T19:05:45.444Z,16.40
2019-04-29T19:08:22.845Z,16.40
2019-04-29T19:10:51.084Z,16.30
2019-04-29T19:13:20.706Z,16.20
2019-04-29T19:15:51.474Z,16.10
2019-04-29T19:18:22.092Z,16.10
2019-04-29T19:20:54.076Z,16.00
2019-04-29T19:23:29.231Z,16.00
2019-04-29T19:25:56.520Z,15.90
2019-04-29T19:28:30.908Z,15.80
2019-04-29T19:31:03.306Z,15.70
2019-04-29T19:33:34.994Z,15.70
2019-04-29T19:36:02.808Z,15.60
2019-04-29T19:38:35.139Z,15.50
2019-04-29T19:41:05.449Z,15.50
2019-04-29T19:43:35.990Z,15.50
2019-04-29T19:46:06.491Z,15.40
2019-04-29T19:48:36.821Z,15.40
2019-04-29T19:51:14.677Z,15.50
2019-04-29T19:53:42.613Z,15.60
2019-04-29T19:56:12.667Z,15.60
2019-04-29T19:58:43.959Z,15.60
2019-04-29T20:01:26.380Z,15.70
2019-04-29T20:04:06.698Z,15.70
2019-04-29T20:06:38.849Z,15.60
2019-04-29T20:09:17.485Z,15.60
2019-04-29T20:11:45.861Z,15.50
2019-04-29T20:14:21.247Z,15.30
2019-04-29T20:17:09.863Z,15.30
2019-04-29T20:19:41.600Z,15.20
2019-04-29T20:22:12.853Z,15.20
2019-04-29T20:24:49.708Z,15.20
2019-04-29T20:27:15.479Z,15.10
2019-04-29T20:29:46.064Z,15.00
2019-04-29T20:32:17.057Z,15.00
2019-04-29T20:34:48.285Z,15.00
2019-04-29T20:37:19.907Z,14.90
2019-04-29T20:39:52.026Z,14.90
2019-04-29T20:42:25.937Z,14.80
2019-04-29T20:44:57.084Z,14.80
2019-04-29T20:47:37.535Z,14.70
2019-04-29T20:49:59.642Z,14.70
2019-04-29T20:52:58.910Z,14.70
2019-04-29T20:55:26.807Z,14.80
2019-04-29T20:57:58.413Z,14.80
2019-04-29T21:00:30.545Z,14.70
2019-04-29T21:03:04.285Z,14.80
2019-04-29T21:05:45.236Z,15.00
2019-04-29T21:08:14.294Z,15.00
2019-04-29T21:10:37.989Z,14.90
2019-04-29T21:13:20.640Z,14.80
2019-04-29T21:15:59.657Z,14.70
2019-04-29T21:18:30.154Z,14.60
2019-04-29T21:21:04.592Z,14.60
2019-04-29T21:23:35.527Z,14.60
2019-04-29T21:26:08.449Z,14.60
2019-04-29T21:28:41.251Z,14.60
2019-04-29T21:31:11.698Z,14.60
2019-04-29T21:33:42.182Z,14.50
2019-04-29T21:36:20.049Z,14.50
2019-04-29T21:39:08.082Z,14.50
2019-04-29T21:41:50.665Z,14.40
2019-04-29T21:44:23.713Z,14.50
2019-04-29T21:46:52.865Z,14.50
2019-04-29T21:49:23.254Z,14.50
2019-04-29T21:51:55.507Z,14.40
2019-04-29T21:54:25.816Z,14.40
2019-04-29T21:56:56.556Z,14.30
2019-04-29T21:59:27.160Z,14.20
2019-04-29T22:01:59.198Z,14.20
2019-04-29T22:04:32.772Z,14.10
2019-04-29T22:07:04.811Z,14.10
2019-04-29T22:09:36.398Z,14.00
2019-04-29T22:12:06.466Z,14.00
2019-04-29T22:14:36.835Z,14.00
2019-04-29T22:17:07.432Z,14.00
2019-04-29T22:19:37.832Z,14.00
2019-04-29T22:22:08.209Z,13.90
2019-04-29T22:24:38.509Z,13.90
2019-04-29T22:27:09.359Z,13.80
2019-04-29T22:29:40.696Z,13.80
2019-04-29T22:32:14.987Z,13.70
2019-04-29T22:34:45.202Z,13.70
2019-04-29T22:37:16.236Z,13.60
2019-04-29T22:39:46.598Z,13.60
2019-04-29T22:42:27.799Z,13.70
2019-04-29T22:45:00.504Z,13.70
2019-04-29T22:47:30.204Z,13.70
2019-04-29T22:50:03.305Z,13.60
2019-04-29T22:52:34.867Z,13.60
2019-04-29T22:55:06.815Z,13.60
2019-04-29T22:57:37.110Z,13.60
2019-04-29T23:00:08.451Z,13.60
2019-04-29T23:02:40.446Z,13.70
2019-04-29T23:05:11.920Z,13.70
2019-04-29T23:07:42.227Z,13.70
2019-04-29T23:10:18.087Z,13.60
2019-04-29T23:12:49.265Z,13.60
2019-04-29T23:15:22.712Z,13.60
2019-04-29T23:17:50.777Z,13.60
2019-04-29T23:20:50.965Z,13.70
2019-04-29T23:23:33.332Z,13.60
2019-04-29T23:26:04.153Z,13.80
2019-04-29T23:28:33.351Z,13.70
2019-04-29T23:31:03.974Z,13.70
2019-04-29T23:33:36.089Z,13.70
2019-04-29T23:36:09.700Z,13.70
2019-04-29T23:38:42.758Z,13.70
2019-04-29T23:41:15.317Z,13.60
2019-04-29T23:43:49.158Z,13.50
2019-04-29T23:46:19.784Z,13.40
2019-04-29T23:48:50.174Z,13.40
2019-04-29T23:51:20.518Z,13.40
2019-04-29T23:53:50.976Z,13.40
2019-04-29T23:56:23.578Z,13.40
2019-04-29T23:58:59.060Z,13.40
